createdAt,value
2023-05-19T00:00:51.145Z,2.30
2023-05-19T00:01:53.323Z,2.20
2023-05-19T00:02:57.112Z,2.53
2023-05-19T00:04:02.726Z,2.20
2023-05-19T00:05:05.207Z,2.42
2023-05-19T00:06:10.723Z,2.58
2023-05-19T00:07:14.486Z,2.58
2023-05-19T00:08:17.491Z,2.80
2023-05-19T00:09:20.142Z,2.90
2023-05-19T00:10:22.016Z,2.35
2023-05-19T00:11:25.522Z,2.10
2023-05-19T00:12:27.369Z,2.10
2023-05-19T00:13:29.680Z,2.10
2023-05-19T00:14:31.536Z,2.03
2023-05-19T00:15:33.724Z,2.10
2023-05-19T00:16:37.910Z,2.80
2023-05-19T00:17:42.438Z,2.70
2023-05-19T00:18:44.201Z,2.63
2023-05-19T00:19:45.964Z,2.72
2023-05-19T00:20:47.565Z,2.42
2023-05-19T00:21:49.293Z,3.00
2023-05-19T00:22:51.476Z,2.60
2023-05-19T00:23:54.645Z,2.95
2023-05-19T00:24:56.453Z,2.70
2023-05-19T00:25:58.116Z,2.60
2023-05-19T00:26:59.855Z,2.47
2023-05-19T00:28:02.528Z,3.00
2023-05-19T00:29:04.578Z,2.75
2023-05-19T00:30:07.248Z,2.30
2023-05-19T00:31:08.905Z,2.63
2023-05-19T00:32:10.591Z,2.50
2023-05-19T00:33:12.563Z,2.53
2023-05-19T00:34:14.399Z,2.33
2023-05-19T00:35:16.505Z,2.42
2023-05-19T00:36:18.321Z,2.28
2023-05-19T00:37:20.582Z,2.35
2023-05-19T00:38:22.239Z,2.42
2023-05-19T00:39:23.976Z,2.30
2023-05-19T00:40:25.934Z,2.75
2023-05-19T00:41:27.613Z,2.38
2023-05-19T00:42:29.444Z,2.85
2023-05-19T00:43:31.501Z,2.33
2023-05-19T00:44:33.354Z,2.50
2023-05-19T00:45:35.633Z,2.60
2023-05-19T00:46:37.996Z,2.35
2023-05-19T00:47:39.709Z,2.22
2023-05-19T00:48:44.579Z,3.17
2023-05-19T00:49:46.270Z,2.67
2023-05-19T00:50:49.184Z,2.28
2023-05-19T00:51:50.802Z,2.80
2023-05-19T00:52:52.644Z,2.80
2023-05-19T00:53:54.368Z,2.60
2023-05-19T00:54:56.413Z,2.78
2023-05-19T00:56:00.000Z,2.90
2023-05-19T00:57:01.757Z,2.70
2023-05-19T00:58:05.422Z,2.70
2023-05-19T00:59:08.053Z,3.05
2023-05-19T01:00:11.196Z,2.50
2023-05-19T01:01:14.626Z,2.83
2023-05-19T01:02:16.433Z,2.67
2023-05-19T01:04:25.545Z,2.45
2023-05-19T01:05:27.219Z,2.60
2023-05-19T01:06:29.593Z,2.83
2023-05-19T01:07:31.310Z,2.60
2023-05-19T01:08:34.336Z,2.60
2023-05-19T01:09:37.322Z,3.10
2023-05-19T01:10:39.120Z,2.38
2023-05-19T01:11:40.868Z,2.47
2023-05-19T01:12:42.630Z,2.72
2023-05-19T01:13:44.476Z,2.22
2023-05-19T01:14:46.387Z,2.40
2023-05-19T01:16:32.388Z,2.60
2023-05-19T01:17:49.399Z,2.40
2023-05-19T01:18:56.196Z,2.67
2023-05-19T01:20:10.969Z,2.50
2023-05-19T01:21:36.466Z,2.35
2023-05-19T01:22:57.246Z,2.47
2023-05-19T01:24:17.891Z,2.40
2023-05-19T01:25:44.647Z,2.85
2023-05-19T01:27:08.107Z,2.45
2023-05-19T01:28:38.524Z,2.25
2023-05-19T01:29:57.424Z,2.47
2023-05-19T01:32:04.825Z,2.33
2023-05-19T01:33:09.938Z,2.80
2023-05-19T01:34:16.371Z,2.60
2023-05-19T01:35:19.223Z,2.65
2023-05-19T01:36:23.478Z,2.30
2023-05-19T01:37:26.794Z,2.30
2023-05-19T01:38:29.771Z,2.30
2023-05-19T01:39:33.487Z,2.50
2023-05-19T01:40:37.209Z,2.60
2023-05-19T01:41:41.714Z,2.72
2023-05-19T01:42:45.471Z,2.85
2023-05-19T01:43:48.728Z,2.67
2023-05-19T01:44:52.050Z,2.80
2023-05-19T01:45:55.067Z,3.00
2023-05-19T01:46:57.073Z,2.72
2023-05-19T01:48:01.836Z,2.75
2023-05-19T01:49:04.559Z,3.13
2023-05-19T01:50:06.924Z,3.28
2023-05-19T01:51:08.792Z,3.40
2023-05-19T01:52:10.469Z,2.88
2023-05-19T01:53:12.335Z,3.00
2023-05-19T01:54:14.039Z,2.70
2023-05-19T01:55:15.969Z,2.55
2023-05-19T01:56:38.349Z,2.92
2023-05-19T01:58:03.294Z,2.90
2023-05-19T01:59:23.996Z,2.72
2023-05-19T02:00:47.493Z,2.80
2023-05-19T02:01:57.052Z,2.90
2023-05-19T02:03:01.775Z,2.60
2023-05-19T02:04:28.702Z,2.90
2023-05-19T02:05:38.441Z,2.60
2023-05-19T02:06:58.687Z,2.97
2023-05-19T02:08:19.568Z,2.80
2023-05-19T02:09:39.820Z,2.75
2023-05-19T02:10:45.602Z,2.50
2023-05-19T02:11:55.403Z,2.53
2023-05-19T02:13:01.499Z,3.30
2023-05-19T02:14:16.057Z,2.92
2023-05-19T02:15:21.483Z,3.08
2023-05-19T02:16:29.327Z,2.65
2023-05-19T02:17:33.338Z,2.80
2023-05-19T02:18:35.925Z,2.97
2023-05-19T02:19:40.023Z,2.60
2023-05-19T02:20:42.593Z,2.92
2023-05-19T02:21:44.312Z,2.97
2023-05-19T02:22:46.028Z,2.80
2023-05-19T02:23:48.760Z,3.40
2023-05-19T02:24:51.792Z,3.10
2023-05-19T02:25:53.749Z,3.10
2023-05-19T02:26:55.552Z,3.20
2023-05-19T02:27:58.777Z,2.90
2023-05-19T02:29:00.413Z,3.05
2023-05-19T02:30:03.535Z,3.10
2023-05-19T02:31:10.054Z,3.15
2023-05-19T02:32:11.940Z,2.63
2023-05-19T02:33:15.081Z,3.20
2023-05-19T02:34:18.121Z,2.95
2023-05-19T02:35:21.022Z,2.60
2023-05-19T02:36:22.827Z,2.90
2023-05-19T02:37:28.747Z,3.00
2023-05-19T02:38:30.425Z,2.75
2023-05-19T02:39:35.203Z,2.83
2023-05-19T02:40:37.373Z,2.78
2023-05-19T02:41:39.467Z,3.00
2023-05-19T02:42:41.283Z,2.97
2023-05-19T02:43:42.932Z,2.72
2023-05-19T02:44:44.912Z,2.70
2023-05-19T02:45:47.125Z,2.75
2023-05-19T02:46:49.009Z,3.17
2023-05-19T02:47:50.775Z,3.20
2023-05-19T02:48:52.648Z,3.25
2023-05-19T02:49:54.850Z,3.30
2023-05-19T02:50:56.916Z,3.95
2023-05-19T02:51:58.814Z,3.90
2023-05-19T02:53:00.507Z,4.00
2023-05-19T02:54:02.145Z,4.28
2023-05-19T02:55:04.331Z,4.10
2023-05-19T02:56:06.216Z,3.95
2023-05-19T02:57:07.896Z,3.60
2023-05-19T02:58:09.736Z,3.90
2023-05-19T02:59:11.561Z,3.70
2023-05-19T03:00:13.749Z,3.35
2023-05-19T03:01:16.527Z,4.03
2023-05-19T03:02:18.609Z,3.45
2023-05-19T03:03:20.587Z,4.15
2023-05-19T03:04:22.425Z,4.00
2023-05-19T03:05:24.156Z,4.57
2023-05-19T03:06:25.932Z,3.75
2023-05-19T03:07:27.821Z,4.15
2023-05-19T03:08:29.560Z,4.40
2023-05-19T03:09:31.418Z,4.13
2023-05-19T03:10:33.455Z,3.83
2023-05-19T03:11:35.714Z,3.97
2023-05-19T03:12:37.973Z,3.60
2023-05-19T03:13:39.728Z,3.40
2023-05-19T03:14:41.463Z,3.85
2023-05-19T03:15:43.288Z,4.47
2023-05-19T03:16:45.252Z,4.68
2023-05-19T03:17:47.246Z,4.22
2023-05-19T03:18:49.066Z,4.90
2023-05-19T03:19:51.284Z,5.05
2023-05-19T03:20:54.032Z,4.85
2023-05-19T03:21:56.500Z,4.88
2023-05-19T03:22:58.523Z,4.30
2023-05-19T03:24:01.208Z,4.90
2023-05-19T03:25:03.484Z,4.80
2023-05-19T03:26:05.388Z,4.53
2023-05-19T03:27:07.101Z,3.90
2023-05-19T03:28:08.926Z,4.50
2023-05-19T03:29:10.593Z,3.85
2023-05-19T03:30:13.440Z,3.90
2023-05-19T03:31:28.508Z,3.95
2023-05-19T03:32:30.263Z,4.00
2023-05-19T03:33:32.040Z,3.63
2023-05-19T03:34:33.947Z,4.93
2023-05-19T03:35:35.891Z,4.10
2023-05-19T03:36:39.462Z,3.70
2023-05-19T03:37:45.417Z,3.75
2023-05-19T03:38:47.126Z,3.97
2023-05-19T03:39:49.152Z,3.95
2023-05-19T03:40:51.055Z,4.00
2023-05-19T03:41:52.746Z,4.13
2023-05-19T03:42:54.604Z,4.10
2023-05-19T03:43:56.461Z,3.85
2023-05-19T03:44:58.120Z,4.30
2023-05-19T03:45:59.957Z,3.67
2023-05-19T03:47:20.152Z,3.75
2023-05-19T03:48:38.686Z,3.63
2023-05-19T03:50:03.601Z,3.63
2023-05-19T03:51:18.136Z,3.20
2023-05-19T03:52:21.691Z,3.40
2023-05-19T03:53:35.068Z,2.63
2023-05-19T03:54:39.563Z,3.40
2023-05-19T03:55:41.296Z,3.38
2023-05-19T03:56:43.519Z,3.40
2023-05-19T03:57:45.206Z,3.25
2023-05-19T03:58:48.449Z,3.65
2023-05-19T03:59:50.155Z,3.38
2023-05-19T04:00:51.754Z,3.67
2023-05-19T04:01:53.777Z,4.13
2023-05-19T04:02:55.623Z,4.15
2023-05-19T04:03:57.475Z,3.80
2023-05-19T04:04:59.290Z,3.72
2023-05-19T04:06:00.962Z,3.60
2023-05-19T04:07:02.715Z,3.75
2023-05-19T04:08:04.448Z,3.95
2023-05-19T04:09:12.834Z,3.83
2023-05-19T04:10:14.616Z,3.50
2023-05-19T04:11:16.425Z,3.80
2023-05-19T04:12:18.280Z,3.65
2023-05-19T04:13:21.499Z,3.35
2023-05-19T04:14:23.579Z,3.70
2023-05-19T04:15:26.032Z,3.50
2023-05-19T04:16:27.881Z,3.55
2023-05-19T04:17:29.727Z,3.80
2023-05-19T04:18:31.560Z,3.80
2023-05-19T04:19:33.672Z,3.33
2023-05-19T04:20:36.762Z,3.88
2023-05-19T04:21:38.861Z,3.90
2023-05-19T04:22:40.478Z,4.28
2023-05-19T04:23:42.080Z,4.10
2023-05-19T04:24:43.891Z,4.05
2023-05-19T04:25:48.629Z,3.70
2023-05-19T04:26:50.847Z,4.18
2023-05-19T04:27:53.027Z,3.80
2023-05-19T04:28:56.872Z,3.45
2023-05-19T04:29:59.536Z,4.00
2023-05-19T04:31:01.644Z,4.13
2023-05-19T04:32:07.919Z,3.92
2023-05-19T04:33:10.384Z,3.80
2023-05-19T04:34:12.418Z,3.70
2023-05-19T04:35:15.406Z,3.53
2023-05-19T04:36:21.325Z,3.67
2023-05-19T04:37:25.867Z,3.35
2023-05-19T04:38:29.929Z,4.07
2023-05-19T04:39:32.134Z,3.70
2023-05-19T04:40:34.738Z,3.55
2023-05-19T04:41:36.530Z,3.83
2023-05-19T04:42:45.812Z,3.88
2023-05-19T04:43:50.065Z,3.65
2023-05-19T04:44:53.621Z,3.53
2023-05-19T04:45:58.483Z,3.75
2023-05-19T04:47:00.807Z,3.35
2023-05-19T04:48:02.755Z,3.78
2023-05-19T04:49:04.765Z,3.28
2023-05-19T04:50:07.482Z,3.72
2023-05-19T04:51:09.565Z,3.78
2023-05-19T04:52:11.668Z,4.38
2023-05-19T04:53:15.724Z,3.95
2023-05-19T04:54:18.057Z,3.50
2023-05-19T04:55:20.690Z,3.85
2023-05-19T04:56:24.400Z,3.97
2023-05-19T04:57:26.235Z,3.85
2023-05-19T04:58:27.857Z,3.40
2023-05-19T04:59:29.890Z,5.07
2023-05-19T05:00:32.183Z,4.13
2023-05-19T05:01:40.908Z,4.32
2023-05-19T05:02:45.542Z,4.47
2023-05-19T05:03:48.344Z,3.67
2023-05-19T05:04:50.761Z,3.45
2023-05-19T05:05:52.541Z,4.00
2023-05-19T05:06:54.491Z,3.72
2023-05-19T05:07:57.580Z,3.78
2023-05-19T05:09:03.951Z,3.88
2023-05-19T05:10:07.263Z,3.45
2023-05-19T05:11:09.465Z,4.28
2023-05-19T05:12:12.530Z,3.72
2023-05-19T05:13:15.609Z,4.55
2023-05-19T05:14:18.512Z,3.95
2023-05-19T05:15:24.942Z,3.40
2023-05-19T05:16:27.309Z,3.15
2023-05-19T05:17:30.327Z,3.80
2023-05-19T05:18:33.622Z,4.28
2023-05-19T05:19:36.001Z,3.72
2023-05-19T05:20:38.977Z,3.83
2023-05-19T05:21:41.765Z,3.55
2023-05-19T05:22:44.383Z,3.92
2023-05-19T05:23:46.976Z,4.15
2023-05-19T05:24:49.496Z,3.80
2023-05-19T05:25:51.707Z,4.05
2023-05-19T05:26:53.988Z,3.80
2023-05-19T05:27:55.886Z,3.53
2023-05-19T05:28:58.502Z,4.15
2023-05-19T05:30:00.609Z,3.85
2023-05-19T05:31:03.734Z,3.97
2023-05-19T05:32:06.017Z,4.30
2023-05-19T05:33:08.854Z,4.05
2023-05-19T05:34:13.641Z,4.10
2023-05-19T05:35:15.585Z,4.70
2023-05-19T05:36:17.841Z,3.78
2023-05-19T05:37:19.706Z,3.50
2023-05-19T05:38:21.534Z,4.10
2023-05-19T05:39:23.899Z,3.70
2023-05-19T05:40:25.624Z,3.95
2023-05-19T05:41:34.976Z,4.13
2023-05-19T05:42:40.488Z,4.20
2023-05-19T05:43:42.377Z,3.78
2023-05-19T05:44:44.035Z,4.20
2023-05-19T05:45:45.837Z,3.90
2023-05-19T05:46:48.197Z,3.97
2023-05-19T05:47:50.935Z,4.07
2023-05-19T05:48:52.891Z,3.97
2023-05-19T05:49:54.924Z,4.20
2023-05-19T05:50:57.408Z,4.35
2023-05-19T05:52:06.252Z,4.63
2023-05-19T05:53:19.245Z,4.63
2023-05-19T05:54:23.294Z,4.53
2023-05-19T05:55:26.540Z,4.20
2023-05-19T05:56:28.774Z,4.20
2023-05-19T05:57:30.764Z,4.07
2023-05-19T05:58:35.799Z,4.63
2023-05-19T05:59:40.696Z,4.65
2023-05-19T06:00:43.787Z,4.43
2023-05-19T06:01:46.121Z,3.75
2023-05-19T06:02:51.309Z,4.00
2023-05-19T06:03:54.123Z,3.83
2023-05-19T06:04:58.320Z,4.25
2023-05-19T06:06:00.498Z,4.47
2023-05-19T06:07:04.827Z,4.00
2023-05-19T06:08:10.071Z,4.30
2023-05-19T06:09:12.442Z,4.00
2023-05-19T06:10:14.267Z,3.97
2023-05-19T06:11:16.355Z,3.90
2023-05-19T06:12:18.042Z,3.58
2023-05-19T06:13:24.083Z,3.67
2023-05-19T06:14:25.965Z,4.25
2023-05-19T06:15:46.231Z,4.70
2023-05-19T06:16:57.384Z,4.15
2023-05-19T06:17:59.260Z,4.03
2023-05-19T06:19:01.378Z,4.20
2023-05-19T06:20:05.701Z,3.95
2023-05-19T06:21:10.119Z,4.57
2023-05-19T06:22:12.230Z,3.65
2023-05-19T06:23:14.462Z,3.92
2023-05-19T06:24:16.121Z,3.47
2023-05-19T06:25:17.976Z,4.45
2023-05-19T06:26:19.842Z,4.25
2023-05-19T06:27:21.690Z,4.50
2023-05-19T06:28:23.561Z,4.28
2023-05-19T06:29:26.899Z,3.85
2023-05-19T06:30:30.745Z,3.53
2023-05-19T06:31:52.028Z,3.60
2023-05-19T06:32:54.498Z,4.05
2023-05-19T06:33:56.356Z,4.10
2023-05-19T06:34:58.592Z,4.50
2023-05-19T06:36:00.610Z,3.63
2023-05-19T06:37:03.858Z,3.65
2023-05-19T06:38:06.677Z,4.50
2023-05-19T06:39:08.652Z,3.83
2023-05-19T06:40:11.645Z,3.85
2023-05-19T06:41:14.734Z,4.13
2023-05-19T06:42:16.845Z,3.60
2023-05-19T06:43:38.809Z,4.47
2023-05-19T06:44:40.654Z,4.30
2023-05-19T06:45:46.183Z,4.00
2023-05-19T06:46:47.929Z,3.80
2023-05-19T06:47:49.864Z,4.38
2023-05-19T06:48:52.023Z,3.95
2023-05-19T06:49:57.521Z,4.35
2023-05-19T06:51:02.564Z,4.40
2023-05-19T06:52:06.138Z,4.20
2023-05-19T06:53:07.804Z,3.90
2023-05-19T06:54:15.946Z,4.25
2023-05-19T06:55:17.659Z,4.00
2023-05-19T06:56:19.727Z,3.55
2023-05-19T06:57:21.758Z,3.72
2023-05-19T06:58:24.636Z,3.70
2023-05-19T06:59:26.390Z,3.65
2023-05-19T07:00:30.350Z,4.53
2023-05-19T07:01:32.591Z,3.25
2023-05-19T07:02:34.865Z,3.60
2023-05-19T07:03:40.092Z,4.22
2023-05-19T07:04:44.012Z,3.67
2023-05-19T07:05:48.931Z,3.17
2023-05-19T07:06:50.675Z,3.38
2023-05-19T07:07:52.753Z,3.75
2023-05-19T07:08:59.008Z,3.80
2023-05-19T07:10:01.322Z,3.45
2023-05-19T07:11:04.614Z,3.45
2023-05-19T07:12:06.431Z,3.55
2023-05-19T07:13:08.575Z,3.38
2023-05-19T07:14:11.165Z,3.40
2023-05-19T07:15:12.915Z,3.50
2023-05-19T07:16:14.849Z,4.20
2023-05-19T07:17:16.809Z,4.65
2023-05-19T07:18:20.127Z,3.33
2023-05-19T07:19:22.753Z,3.67
2023-05-19T07:20:25.094Z,3.88
2023-05-19T07:21:26.857Z,4.00
2023-05-19T07:22:30.098Z,3.58
2023-05-19T07:23:31.720Z,3.15
2023-05-19T07:24:33.669Z,4.15
2023-05-19T07:25:35.278Z,3.35
2023-05-19T07:26:37.824Z,3.50
2023-05-19T07:27:39.735Z,3.72
2023-05-19T07:28:42.798Z,3.72
2023-05-19T07:29:44.726Z,3.55
2023-05-19T07:30:46.368Z,3.80
2023-05-19T07:31:48.193Z,3.55
2023-05-19T07:32:49.872Z,4.10
2023-05-19T07:33:54.275Z,3.08
2023-05-19T07:34:56.302Z,4.05
2023-05-19T07:35:57.865Z,3.97
2023-05-19T07:37:00.291Z,4.18
2023-05-19T07:38:02.449Z,4.13
2023-05-19T07:39:04.583Z,3.78
2023-05-19T07:40:09.982Z,3.50
2023-05-19T07:41:11.623Z,3.90
2023-05-19T07:42:13.895Z,3.90
2023-05-19T07:43:15.574Z,3.58
2023-05-19T07:44:17.367Z,3.70
2023-05-19T07:45:19.025Z,3.33
2023-05-19T07:46:21.948Z,3.72
2023-05-19T07:47:24.525Z,3.45
2023-05-19T07:48:26.257Z,3.63
2023-05-19T07:49:27.847Z,3.38
2023-05-19T07:50:29.912Z,3.33
2023-05-19T07:51:31.789Z,3.15
2023-05-19T07:52:35.768Z,3.08
2023-05-19T07:53:37.640Z,2.70
2023-05-19T07:54:39.644Z,3.60
2023-05-19T07:55:41.280Z,3.50
2023-05-19T07:56:42.938Z,3.80
2023-05-19T07:57:44.859Z,3.30
2023-05-19T07:58:46.505Z,3.60
2023-05-19T07:59:48.206Z,3.67
2023-05-19T08:00:50.066Z,3.13
2023-05-19T08:01:52.109Z,2.60
2023-05-19T08:02:54.146Z,3.35
2023-05-19T08:03:56.740Z,3.40
2023-05-19T08:04:58.802Z,3.28
2023-05-19T08:06:00.482Z,3.65
2023-05-19T08:07:02.220Z,2.78
2023-05-19T08:08:04.332Z,3.35
2023-05-19T08:09:06.137Z,3.42
2023-05-19T08:10:08.060Z,3.53
2023-05-19T08:11:09.864Z,3.30
2023-05-19T08:12:11.478Z,2.50
2023-05-19T08:13:13.475Z,3.00
2023-05-19T08:14:15.252Z,2.80
2023-05-19T08:15:16.853Z,2.92
2023-05-19T08:16:18.941Z,3.08
2023-05-19T08:17:20.767Z,2.92
2023-05-19T08:18:22.526Z,3.17
2023-05-19T08:19:24.227Z,3.08
2023-05-19T08:20:25.897Z,3.17
2023-05-19T08:21:27.593Z,2.95
2023-05-19T08:22:29.383Z,2.60
2023-05-19T08:23:30.997Z,3.05
2023-05-19T08:24:35.457Z,2.75
2023-05-19T08:25:37.767Z,2.95
2023-05-19T08:26:39.742Z,2.95
2023-05-19T08:27:41.547Z,2.85
2023-05-19T08:28:44.273Z,2.88
2023-05-19T08:29:45.992Z,3.45
2023-05-19T08:30:47.553Z,2.60
2023-05-19T08:31:49.550Z,2.65
2023-05-19T08:32:51.345Z,2.70
2023-05-19T08:33:53.108Z,2.78
2023-05-19T08:34:54.781Z,2.97
2023-05-19T08:35:58.584Z,2.80
2023-05-19T08:37:00.276Z,2.38
2023-05-19T08:38:01.899Z,2.95
2023-05-19T08:39:04.066Z,3.10
2023-05-19T08:40:06.382Z,2.90
2023-05-19T08:41:08.477Z,2.47
2023-05-19T08:42:10.224Z,3.17
2023-05-19T08:43:12.869Z,2.92
2023-05-19T08:44:16.592Z,3.05
2023-05-19T08:45:20.694Z,3.08
2023-05-19T08:46:27.471Z,2.88
2023-05-19T08:47:29.668Z,2.63
2023-05-19T08:48:32.852Z,2.15
2023-05-19T08:49:53.479Z,2.70
2023-05-19T08:51:09.030Z,2.92
2023-05-19T08:52:35.896Z,2.35
2023-05-19T08:53:51.161Z,2.97
2023-05-19T08:55:04.878Z,2.65
2023-05-19T08:56:12.372Z,2.83
2023-05-19T08:57:14.435Z,2.20
2023-05-19T08:58:20.358Z,2.80
2023-05-19T08:59:22.859Z,3.15
2023-05-19T09:00:26.530Z,2.40
2023-05-19T09:01:30.778Z,2.30
2023-05-19T09:02:36.825Z,2.58
2023-05-19T09:03:39.910Z,2.80
2023-05-19T09:04:46.229Z,3.00
2023-05-19T09:05:48.861Z,2.88
2023-05-19T09:06:51.521Z,3.10
2023-05-19T09:07:53.506Z,2.97
2023-05-19T09:08:55.385Z,3.20
2023-05-19T09:09:57.051Z,2.67
2023-05-19T09:10:59.605Z,2.78
2023-05-19T09:12:01.442Z,2.70
2023-05-19T09:13:03.117Z,2.78
2023-05-19T09:14:05.883Z,3.35
2023-05-19T09:15:10.297Z,2.88
2023-05-19T09:16:12.461Z,2.88
2023-05-19T09:17:15.787Z,2.53
2023-05-19T09:18:17.805Z,2.35
2023-05-19T09:19:21.380Z,2.42
2023-05-19T09:20:23.214Z,2.20
2023-05-19T09:21:31.642Z,2.30
2023-05-19T09:22:37.112Z,2.28
2023-05-19T09:23:39.026Z,2.78
2023-05-19T09:24:41.380Z,2.00
2023-05-19T09:25:53.888Z,2.22
2023-05-19T09:27:00.425Z,2.20
2023-05-19T09:28:02.506Z,2.10
2023-05-19T09:29:17.745Z,2.22
2023-05-19T09:30:20.487Z,2.47
2023-05-19T09:31:22.613Z,2.50
2023-05-19T09:32:26.754Z,2.10
2023-05-19T09:33:30.046Z,2.22
2023-05-19T09:34:32.323Z,2.08
2023-05-19T09:35:35.315Z,2.35
2023-05-19T09:36:39.983Z,2.22
2023-05-19T09:37:42.090Z,2.10
2023-05-19T09:38:45.584Z,2.15
2023-05-19T09:39:51.959Z,2.47
2023-05-19T09:40:57.691Z,1.90
2023-05-19T09:41:59.550Z,2.42
2023-05-19T09:43:05.426Z,2.47
2023-05-19T09:44:07.919Z,2.00
2023-05-19T09:45:09.985Z,2.20
2023-05-19T09:46:13.797Z,2.33
2023-05-19T09:47:16.882Z,2.25
2023-05-19T09:48:21.612Z,1.98
2023-05-19T09:49:31.267Z,2.42
2023-05-19T09:50:34.083Z,2.05
2023-05-19T09:51:41.797Z,2.15
2023-05-19T09:52:44.664Z,2.10
2023-05-19T09:53:46.610Z,2.38
2023-05-19T09:54:49.293Z,2.40
2023-05-19T09:55:55.446Z,2.55
2023-05-19T09:56:59.088Z,2.03
2023-05-19T09:58:04.042Z,2.00
2023-05-19T09:59:07.463Z,2.60
2023-05-19T10:00:19.949Z,2.42
2023-05-19T10:01:22.449Z,2.10
2023-05-19T10:02:26.195Z,2.15
2023-05-19T10:03:28.695Z,2.35
2023-05-19T10:04:31.602Z,2.40
2023-05-19T10:05:34.481Z,2.22
2023-05-19T10:06:37.039Z,2.25
2023-05-19T10:07:40.823Z,2.05
2023-05-19T10:08:44.286Z,2.40
2023-05-19T10:09:47.421Z,2.10
2023-05-19T10:10:49.674Z,2.10
2023-05-19T10:11:55.768Z,2.33
2023-05-19T10:13:00.343Z,2.45
2023-05-19T10:14:02.260Z,1.88
2023-05-19T10:15:05.723Z,2.78
2023-05-19T10:16:10.042Z,2.10
2023-05-19T10:17:13.026Z,2.60
2023-05-19T10:18:18.228Z,2.70
2023-05-19T10:19:27.864Z,2.35
2023-05-19T10:20:31.568Z,2.00
2023-05-19T10:21:33.616Z,1.73
2023-05-19T10:22:35.493Z,2.40
2023-05-19T10:23:38.138Z,2.08
2023-05-19T10:24:40.436Z,2.17
2023-05-19T10:25:42.889Z,2.22
2023-05-19T10:26:48.024Z,2.30
2023-05-19T10:28:14.724Z,2.13
2023-05-19T10:29:21.219Z,2.13
2023-05-19T10:30:35.849Z,2.30
2023-05-19T10:31:42.751Z,2.10
2023-05-19T10:32:46.738Z,2.22
2023-05-19T10:34:02.869Z,2.65
2023-05-19T10:35:08.522Z,2.42
2023-05-19T10:36:24.989Z,1.80
2023-05-19T10:37:41.909Z,2.67
2023-05-19T10:39:01.864Z,2.10
2023-05-19T10:40:21.912Z,2.33
2023-05-19T10:41:46.416Z,2.00
2023-05-19T10:43:14.198Z,2.10
2023-05-19T10:44:23.798Z,1.83
2023-05-19T10:45:29.390Z,2.60
2023-05-19T10:46:31.715Z,1.85
2023-05-19T10:47:35.004Z,1.92
2023-05-19T10:48:37.490Z,2.42
2023-05-19T10:49:39.972Z,1.83
2023-05-19T10:50:44.838Z,1.90
2023-05-19T10:51:46.818Z,2.13
2023-05-19T10:52:57.972Z,2.13
2023-05-19T10:54:06.221Z,2.17
2023-05-19T10:55:10.073Z,2.10
2023-05-19T10:56:12.557Z,2.08
2023-05-19T10:57:16.201Z,2.22
2023-05-19T10:58:36.387Z,2.38
2023-05-19T10:59:39.524Z,2.35
2023-05-19T11:00:44.545Z,2.42
2023-05-19T11:01:47.035Z,1.85
2023-05-19T11:02:55.925Z,2.45
2023-05-19T11:05:18.545Z,1.75
2023-05-19T11:06:27.479Z,1.83
2023-05-19T11:07:29.830Z,2.10
2023-05-19T11:08:33.446Z,2.53
2023-05-19T11:09:41.057Z,1.80
2023-05-19T11:10:46.429Z,2.07
2023-05-19T11:11:54.910Z,2.40
2023-05-19T11:13:00.522Z,2.03
2023-05-19T11:14:02.128Z,1.80
2023-05-19T11:15:04.333Z,2.20
2023-05-19T11:16:09.961Z,1.77
2023-05-19T11:17:15.822Z,2.20
2023-05-19T11:18:20.305Z,1.77
2023-05-19T11:19:37.406Z,2.05
2023-05-19T11:20:39.701Z,2.28
2023-05-19T11:21:52.708Z,1.92
2023-05-19T11:23:06.980Z,2.47
2023-05-19T11:24:09.793Z,2.13
2023-05-19T11:25:11.431Z,2.28
2023-05-19T11:26:13.756Z,2.03
2023-05-19T11:27:28.552Z,2.28
2023-05-19T11:28:30.889Z,2.33
2023-05-19T11:29:34.240Z,1.98
2023-05-19T11:30:36.876Z,2.42
2023-05-19T11:31:39.785Z,2.28
2023-05-19T11:32:42.884Z,2.33
2023-05-19T11:33:45.277Z,2.10
2023-05-19T11:34:48.574Z,2.25
2023-05-19T11:35:51.171Z,2.35
2023-05-19T11:36:53.030Z,2.20
2023-05-19T11:37:54.876Z,2.10
2023-05-19T11:38:57.613Z,1.77
2023-05-19T11:40:02.546Z,1.98
2023-05-19T11:41:04.546Z,1.98
2023-05-19T11:42:10.596Z,2.00
2023-05-19T11:43:12.599Z,1.83
2023-05-19T11:44:14.268Z,2.00
2023-05-19T11:45:16.196Z,1.80
2023-05-19T11:46:18.256Z,2.05
2023-05-19T11:47:21.082Z,1.83
2023-05-19T11:48:23.030Z,2.00
2023-05-19T11:49:24.929Z,2.13
2023-05-19T11:50:27.597Z,1.85
2023-05-19T11:51:29.493Z,2.20
2023-05-19T11:52:31.194Z,2.00
2023-05-19T11:53:36.167Z,1.88
2023-05-19T11:54:39.663Z,1.80
2023-05-19T11:55:49.384Z,1.90
2023-05-19T11:56:51.534Z,1.98
2023-05-19T11:58:04.066Z,1.73
2023-05-19T11:59:06.854Z,2.10
2023-05-19T12:00:09.316Z,2.05
2023-05-19T12:01:11.130Z,1.98
2023-05-19T12:02:16.100Z,2.22
2023-05-19T12:03:21.794Z,2.17
2023-05-19T12:04:23.814Z,1.90
2023-05-19T12:05:26.588Z,1.90
2023-05-19T12:06:29.865Z,1.88
2023-05-19T12:07:31.872Z,1.98
2023-05-19T12:08:34.839Z,1.70
2023-05-19T12:09:36.991Z,1.50
2023-05-19T12:10:39.812Z,1.85
2023-05-19T12:11:41.519Z,1.77
2023-05-19T12:12:45.176Z,1.83
2023-05-19T12:13:47.847Z,2.05
2023-05-19T12:14:54.054Z,1.80
2023-05-19T12:16:00.431Z,2.03
2023-05-19T12:17:16.554Z,1.60
2023-05-19T12:18:20.007Z,1.70
2023-05-19T12:19:25.838Z,1.55
2023-05-19T12:20:29.714Z,1.65
2023-05-19T12:21:34.166Z,1.60
2023-05-19T12:22:36.833Z,2.10
2023-05-19T12:23:39.095Z,2.13
2023-05-19T12:24:42.674Z,2.00
2023-05-19T12:25:44.776Z,1.95
2023-05-19T12:26:47.138Z,1.85
2023-05-19T12:27:49.663Z,1.67
2023-05-19T12:28:52.669Z,2.83
2023-05-19T12:29:55.825Z,1.80
2023-05-19T12:30:58.877Z,1.77
2023-05-19T12:32:01.421Z,2.17
2023-05-19T12:33:03.503Z,1.60
2023-05-19T12:34:05.395Z,1.70
2023-05-19T12:35:07.512Z,2.15
2023-05-19T12:36:10.299Z,1.77
2023-05-19T12:37:12.082Z,1.88
2023-05-19T12:38:15.748Z,1.60
2023-05-19T12:39:18.042Z,1.70
2023-05-19T12:40:21.295Z,1.35
2023-05-19T12:41:25.126Z,1.63
2023-05-19T12:42:31.757Z,1.60
2023-05-19T12:43:33.648Z,1.98
2023-05-19T12:44:55.473Z,2.45
2023-05-19T12:45:57.264Z,2.03
2023-05-19T12:46:59.631Z,1.88
2023-05-19T12:48:04.611Z,2.15
2023-05-19T12:49:06.260Z,2.30
2023-05-19T12:50:09.966Z,2.20
2023-05-19T12:51:19.271Z,1.80
2023-05-19T12:52:23.582Z,1.92
2023-05-19T12:53:27.821Z,2.30
2023-05-19T12:54:34.243Z,2.17
2023-05-19T12:55:43.580Z,1.80
2023-05-19T12:56:52.373Z,1.70
2023-05-19T12:59:00.937Z,1.77
2023-05-19T13:00:22.846Z,1.75
2023-05-19T13:01:24.792Z,1.60
2023-05-19T13:02:26.627Z,1.70
2023-05-19T13:03:28.670Z,1.90
2023-05-19T13:04:30.541Z,2.33
2023-05-19T13:05:43.762Z,2.38
2023-05-19T13:06:47.409Z,2.13
2023-05-19T13:08:05.303Z,1.80
2023-05-19T13:09:07.417Z,2.30
2023-05-19T13:10:09.473Z,2.03
2023-05-19T13:11:11.745Z,12.55
2023-05-19T13:12:13.678Z,8.10
2023-05-19T13:13:16.444Z,4.88
2023-05-19T13:14:18.805Z,2.65
2023-05-19T13:15:22.294Z,4.05
2023-05-19T13:16:24.155Z,1.90
2023-05-19T13:17:26.676Z,2.35
2023-05-19T13:18:31.949Z,1.90
2023-05-19T13:19:33.931Z,1.67
2023-05-19T13:20:40.878Z,2.08
2023-05-19T13:21:42.610Z,2.30
2023-05-19T13:22:44.713Z,2.45
2023-05-19T13:23:46.286Z,2.40
2023-05-19T13:24:48.408Z,2.03
2023-05-19T13:25:51.473Z,2.08
2023-05-19T13:26:56.192Z,3.90
2023-05-19T13:28:01.115Z,14.85
2023-05-19T13:29:03.238Z,5.53
2023-05-19T13:30:05.641Z,9.85
2023-05-19T13:31:07.442Z,3.38
2023-05-19T13:32:09.245Z,8.38
2023-05-19T13:33:11.999Z,8.98
2023-05-19T13:34:13.940Z,4.38
2023-05-19T13:35:16.013Z,6.88
2023-05-19T13:36:17.627Z,3.30
2023-05-19T13:37:19.789Z,7.35
2023-05-19T13:38:21.524Z,3.15
2023-05-19T13:39:23.388Z,1.98
2023-05-19T13:40:26.022Z,1.83
2023-05-19T13:41:30.275Z,2.28
2023-05-19T13:42:33.592Z,2.10
2023-05-19T13:43:35.371Z,1.80
2023-05-19T13:44:37.397Z,1.92
2023-05-19T13:45:39.364Z,2.00
2023-05-19T13:46:45.402Z,1.52
2023-05-19T13:47:48.711Z,1.58
2023-05-19T13:48:50.303Z,1.50
2023-05-19T13:49:52.851Z,1.70
2023-05-19T13:50:55.737Z,1.90
2023-05-19T13:51:58.563Z,1.75
2023-05-19T13:53:00.544Z,2.10
2023-05-19T13:54:02.850Z,1.92
2023-05-19T13:55:04.941Z,1.70
2023-05-19T13:56:07.023Z,1.92
2023-05-19T13:57:08.979Z,1.60
2023-05-19T13:58:11.271Z,2.25
2023-05-19T13:59:13.844Z,1.63
2023-05-19T14:00:15.896Z,1.77
2023-05-19T14:01:17.559Z,1.48
2023-05-19T14:02:19.593Z,1.60
2023-05-19T14:03:21.353Z,1.70
2023-05-19T14:04:26.648Z,1.35
2023-05-19T14:05:29.005Z,1.77
2023-05-19T14:06:30.884Z,1.63
2023-05-19T14:07:34.855Z,1.48
2023-05-19T14:08:36.741Z,1.63
2023-05-19T14:09:38.746Z,1.65
2023-05-19T14:10:40.499Z,1.80
2023-05-19T14:11:42.830Z,1.80
2023-05-19T14:13:04.917Z,1.52
2023-05-19T14:14:06.445Z,1.30
2023-05-19T14:15:09.857Z,1.25
2023-05-19T14:16:12.949Z,1.42
2023-05-19T14:17:17.377Z,1.40
2023-05-19T14:18:19.017Z,1.70
2023-05-19T14:19:20.818Z,1.58